createdAt,value
2019-04-07T00:01:11.546Z,100143.09
2019-04-07T00:03:41.206Z,100144.75
2019-04-07T00:06:11.145Z,100148.77
2019-04-07T00:08:40.868Z,100145.66
2019-04-07T00:11:10.759Z,100144.31
2019-04-07T00:13:40.505Z,100145.66
2019-04-07T00:16:10.311Z,100137.32
2019-04-07T00:18:40.072Z,100143.14
2019-04-07T00:21:10.054Z,100142.57
2019-04-07T00:23:39.771Z,100146.11
2019-04-07T00:26:09.879Z,100141.56
2019-04-07T00:28:39.632Z,100142.20
2019-04-07T00:31:09.550Z,100144.09
2019-04-07T00:33:39.406Z,100139.20
2019-04-07T00:36:09.561Z,100132.84
2019-04-07T00:38:39.441Z,100140.00
2019-04-07T00:41:09.505Z,100140.22
2019-04-07T00:43:39.570Z,100135.81
2019-04-07T00:46:09.534Z,100133.62
2019-04-07T00:48:39.566Z,100143.69
2019-04-07T00:51:09.370Z,100135.80
2019-04-07T00:53:39.399Z,100138.19
2019-04-07T00:56:09.384Z,100135.66
2019-04-07T00:58:39.142Z,100133.13
2019-04-07T01:01:10.646Z,100137.00
2019-04-07T01:03:40.506Z,100135.09
2019-04-07T01:06:10.746Z,100131.17
2019-04-07T01:08:41.624Z,100134.00
2019-04-07T01:11:11.441Z,100131.32
2019-04-07T01:13:41.636Z,100135.09
2019-04-07T01:16:11.945Z,100136.16
2019-04-07T01:18:42.537Z,100135.02
2019-04-07T01:21:12.812Z,100137.73
2019-04-07T01:23:42.730Z,100135.41
2019-04-07T01:26:12.814Z,100135.19
2019-04-07T01:28:42.945Z,100137.47
2019-04-07T01:31:13.351Z,100138.80
2019-04-07T01:33:43.203Z,100140.47
2019-04-07T01:36:13.594Z,100138.55
2019-04-07T01:38:43.372Z,100140.61
2019-04-07T01:41:26.684Z,100140.22
2019-04-07T01:43:58.093Z,100147.95
2019-04-07T01:46:35.437Z,100140.34
2019-04-07T01:49:10.878Z,100135.37
2019-04-07T01:51:45.519Z,100144.20
2019-04-07T01:54:28.559Z,100140.88
2019-04-07T01:57:00.231Z,100133.25
2019-04-07T01:59:47.644Z,100139.94
2019-04-07T02:02:35.572Z,100131.92
2019-04-07T02:05:10.899Z,100132.72
2019-04-07T02:07:51.314Z,100132.20
2019-04-07T02:10:29.062Z,100127.06
2019-04-07T02:13:03.229Z,100124.00
2019-04-07T02:15:50.970Z,100127.54
2019-04-07T02:18:38.845Z,100126.74
2019-04-07T02:21:10.412Z,100130.18
2019-04-07T02:23:54.805Z,100128.36
2019-04-07T02:26:29.114Z,100131.67
2019-04-07T02:29:15.638Z,100128.90
2019-04-07T02:31:47.202Z,100121.05
2019-04-07T02:34:18.558Z,100121.68
2019-04-07T02:37:00.319Z,100121.27
2019-04-07T02:39:48.664Z,100127.19
2019-04-07T02:42:28.747Z,100131.44
2019-04-07T02:45:01.309Z,100121.91
2019-04-07T02:47:39.378Z,100123.73
2019-04-07T02:50:26.289Z,100126.78
2019-04-07T02:53:03.893Z,100117.84
2019-04-07T02:55:42.027Z,100126.08
2019-04-07T02:58:13.816Z,100131.75
2019-04-07T03:00:45.255Z,100126.66
2019-04-07T03:03:34.986Z,100130.09
2019-04-07T03:06:07.013Z,100130.19
2019-04-07T03:08:39.730Z,100126.00
2019-04-07T03:11:11.234Z,100135.19
2019-04-07T03:13:58.654Z,100132.20
2019-04-07T03:16:47.425Z,100135.36
2019-04-07T03:19:19.381Z,100136.38
2019-04-07T03:21:58.348Z,100134.00
2019-04-07T03:24:46.045Z,100139.72
2019-04-07T03:27:19.986Z,100138.07
2019-04-07T03:29:51.462Z,100139.93
2019-04-07T03:32:42.853Z,100139.66
2019-04-07T03:35:17.788Z,100148.66
2019-04-07T03:37:54.753Z,100138.17
2019-04-07T03:40:28.982Z,100141.05
2019-04-07T03:43:07.183Z,100142.36
2019-04-07T03:45:38.541Z,100140.59
2019-04-07T03:48:19.131Z,100139.76
2019-04-07T03:50:56.917Z,100133.53
2019-04-07T03:53:39.331Z,100140.05
2019-04-07T03:56:18.128Z,100147.05
2019-04-07T03:58:55.795Z,100138.91
2019-04-07T04:01:25.809Z,100140.20
2019-04-07T04:03:56.594Z,100145.33
2019-04-07T04:06:28.912Z,100141.68
2019-04-07T04:08:58.728Z,100140.66
2019-04-07T04:11:32.603Z,100141.45
2019-04-07T04:14:09.734Z,100143.23
2019-04-07T04:16:41.035Z,100141.53
2019-04-07T04:19:11.085Z,100146.61
2019-04-07T04:21:40.855Z,100146.97
2019-04-07T04:24:10.542Z,100143.05
2019-04-07T04:26:40.308Z,100149.23
2019-04-07T04:29:10.392Z,100155.16
2019-04-07T04:31:40.478Z,100153.28
2019-04-07T04:34:10.477Z,100159.23
2019-04-07T04:36:40.539Z,100162.18
2019-04-07T04:39:10.459Z,100166.44
2019-04-07T04:41:40.539Z,100166.14
2019-04-07T04:44:10.333Z,100168.16
2019-04-07T04:46:41.134Z,100163.55
2019-04-07T04:49:11.849Z,100168.20
2019-04-07T04:51:42.564Z,100172.14
2019-04-07T04:54:12.613Z,100175.26
2019-04-07T04:56:43.399Z,100179.42
2019-04-07T04:59:13.224Z,100184.02
2019-04-07T05:01:43.305Z,100189.84
2019-04-07T05:04:13.029Z,100190.70
2019-04-07T05:06:43.492Z,100188.33
2019-04-07T05:09:13.590Z,100193.23
2019-04-07T05:11:43.388Z,100195.86
2019-04-07T05:14:13.137Z,100193.62
2019-04-07T05:16:43.482Z,100195.45
2019-04-07T05:19:13.283Z,100202.16
2019-04-07T05:21:43.609Z,100200.53
2019-04-07T05:24:13.860Z,100210.94
2019-04-07T05:26:43.618Z,100200.53
2019-04-07T05:29:13.757Z,100202.33
2019-04-07T05:31:43.864Z,100200.10
2019-04-07T05:34:16.767Z,100199.91
2019-04-07T05:36:45.676Z,100205.30
2019-04-07T05:39:15.418Z,100203.92
2019-04-07T05:41:45.154Z,100208.78
2019-04-07T05:44:15.100Z,100213.02
2019-04-07T05:46:45.282Z,100214.66
2019-04-07T05:49:16.904Z,100218.95
2019-04-07T05:51:47.193Z,100221.80
2019-04-07T05:54:19.001Z,100230.42
2019-04-07T05:56:49.189Z,100225.48
2019-04-07T05:59:19.788Z,100232.08
2019-04-07T06:01:51.666Z,100226.92
2019-04-07T06:04:21.706Z,100234.98
2019-04-07T06:06:54.898Z,100245.37
2019-04-07T06:09:23.127Z,100247.02
2019-04-07T06:11:53.233Z,100248.48
2019-04-07T06:14:24.282Z,100245.47
2019-04-07T06:16:55.454Z,100250.16
2019-04-07T06:19:26.045Z,100247.82
2019-04-07T06:21:56.005Z,100248.36
2019-04-07T06:24:28.801Z,100256.66
2019-04-07T06:26:57.527Z,100256.52
2019-04-07T06:29:28.025Z,100252.20
2019-04-07T06:32:02.114Z,100255.22
2019-04-07T06:34:29.497Z,100257.34
2019-04-07T06:36:59.591Z,100250.10
2019-04-07T06:39:31.839Z,100259.80
2019-04-07T06:42:01.531Z,100261.02
2019-04-07T06:44:32.318Z,100257.94
2019-04-07T06:47:06.588Z,100258.59
2019-04-07T06:49:38.144Z,100256.25
2019-04-07T06:52:18.400Z,100254.71
2019-04-07T06:55:05.625Z,100259.13
2019-04-07T06:57:37.722Z,100251.64
2019-04-07T07:00:20.585Z,100261.33
2019-04-07T07:03:08.337Z,100258.66
2019-04-07T07:05:56.173Z,100259.61
2019-04-07T07:08:42.474Z,100257.70
2019-04-07T07:11:09.490Z,100256.05
2019-04-07T07:13:50.898Z,100255.48
2019-04-07T07:16:26.182Z,100253.79
2019-04-07T07:19:04.224Z,100257.94
2019-04-07T07:21:38.724Z,100259.37
2019-04-07T07:24:07.373Z,100255.66
2019-04-07T07:26:38.653Z,100259.95
2019-04-07T07:29:09.300Z,100264.02
2019-04-07T07:31:39.215Z,100260.93
2019-04-07T07:34:10.141Z,100268.50
2019-04-07T07:36:40.799Z,100275.13
2019-04-07T07:39:12.577Z,100279.50
2019-04-07T07:41:42.317Z,100278.78
2019-04-07T07:44:12.263Z,100278.97
2019-04-07T07:46:42.173Z,100275.49
2019-04-07T07:49:12.437Z,100276.83
2019-04-07T07:51:45.098Z,100266.58
2019-04-07T07:54:14.808Z,100270.30
2019-04-07T07:56:50.146Z,100269.15
2019-04-07T07:59:20.002Z,100269.88
2019-04-07T08:01:51.338Z,100265.13
2019-04-07T08:04:24.931Z,100264.72
2019-04-07T08:06:53.409Z,100270.75
2019-04-07T08:09:26.101Z,100273.27
2019-04-07T08:11:56.386Z,100273.03
2019-04-07T08:14:27.238Z,100268.23
2019-04-07T08:17:00.166Z,100264.35
2019-04-07T08:19:30.543Z,100270.16
2019-04-07T08:22:00.710Z,100271.69
2019-04-07T08:24:30.655Z,100271.55
2019-04-07T08:27:00.541Z,100274.94
2019-04-07T08:29:30.947Z,100284.98
2019-04-07T08:32:01.114Z,100283.10
2019-04-07T08:34:32.922Z,100276.26
2019-04-07T08:37:03.734Z,100280.10
2019-04-07T08:39:35.456Z,100275.80
2019-04-07T08:42:09.830Z,100273.69
2019-04-07T08:44:36.977Z,100284.90
2019-04-07T08:47:11.423Z,100274.06
2019-04-07T08:49:38.414Z,100276.99
2019-04-07T08:52:10.219Z,100268.47
2019-04-07T08:54:39.876Z,100270.05
2019-04-07T08:57:09.683Z,100266.16
2019-04-07T08:59:42.399Z,100271.66
2019-04-07T09:02:11.384Z,100270.09
2019-04-07T09:04:41.381Z,100274.56
2019-04-07T09:07:11.749Z,100267.28
2019-04-07T09:09:46.610Z,100268.98
2019-04-07T09:12:14.025Z,100263.70
2019-04-07T09:14:44.089Z,100274.47
2019-04-07T09:17:29.302Z,100270.31
2019-04-07T09:19:47.781Z,100265.36
2019-04-07T09:22:23.461Z,100274.36
2019-04-07T09:25:11.945Z,100276.03
2019-04-07T09:27:46.058Z,100279.02
2019-04-07T09:30:36.805Z,100277.23
2019-04-07T09:33:18.066Z,100285.22
2019-04-07T09:35:58.885Z,100278.72
2019-04-07T09:38:32.046Z,100280.98
2019-04-07T09:41:13.353Z,100273.67
2019-04-07T09:43:45.256Z,100268.66
2019-04-07T09:46:20.292Z,100268.52
2019-04-07T09:48:52.494Z,100269.80
2019-04-07T09:51:25.501Z,100273.71
2019-04-07T09:54:12.226Z,100271.68
2019-04-07T09:57:03.390Z,100269.45
2019-04-07T09:59:52.140Z,100266.76
2019-04-07T10:02:38.364Z,100262.84
2019-04-07T10:05:26.608Z,100267.30
2019-04-07T10:08:11.410Z,100262.09
2019-04-07T10:10:49.986Z,100265.34
2019-04-07T10:13:21.607Z,100267.48
2019-04-07T10:15:56.374Z,100264.02
2019-04-07T10:18:32.835Z,100266.34
2019-04-07T10:21:19.651Z,100266.98
2019-04-07T10:23:51.120Z,100261.75
2019-04-07T10:26:36.228Z,100263.48
2019-04-07T10:29:13.991Z,100264.08
2019-04-07T10:31:45.312Z,100258.00
2019-04-07T10:34:33.289Z,100264.33
2019-04-07T10:37:05.394Z,100265.45
2019-04-07T10:39:37.102Z,100272.87
2019-04-07T10:42:24.852Z,100265.41
2019-04-07T10:45:02.007Z,100263.22
2019-04-07T10:47:42.163Z,100272.58
2019-04-07T10:50:26.841Z,100265.09
2019-04-07T10:52:58.465Z,100260.41
2019-04-07T10:55:35.185Z,100269.48
2019-04-07T10:58:08.275Z,100265.42
2019-04-07T11:00:56.546Z,100262.44
2019-04-07T11:03:44.380Z,100271.50
2019-04-07T11:06:16.084Z,100264.30
2019-04-07T11:08:46.605Z,100260.17
2019-04-07T11:11:19.061Z,100261.92
2019-04-07T11:14:02.696Z,100255.97
2019-04-07T11:16:34.098Z,100268.41
2019-04-07T11:19:05.616Z,100258.31
2019-04-07T11:21:42.783Z,100255.56
2019-04-07T11:24:19.666Z,100266.16
2019-04-07T11:26:55.027Z,100261.34
2019-04-07T11:29:29.585Z,100262.31
2019-04-07T11:32:04.084Z,100258.91
2019-04-07T11:34:52.939Z,100259.55
2019-04-07T11:37:33.392Z,100255.66
2019-04-07T11:40:04.874Z,100255.70
2019-04-07T11:42:39.410Z,100251.94
2019-04-07T11:45:17.596Z,100257.70
2019-04-07T11:47:59.454Z,100250.67
2019-04-07T11:50:48.985Z,100256.86
2019-04-07T11:53:21.194Z,100256.00
2019-04-07T11:55:53.232Z,100255.70
2019-04-07T11:58:33.141Z,100257.48
2019-04-07T12:01:12.261Z,100246.66
2019-04-07T12:03:38.693Z,100250.17
2019-04-07T12:06:14.357Z,100249.25
2019-04-07T12:08:46.772Z,100241.56
2019-04-07T12:11:31.055Z,100244.11
2019-04-07T12:14:08.977Z,100242.15
2019-04-07T12:16:53.458Z,100243.35
2019-04-07T12:19:39.885Z,100236.23
2019-04-07T12:22:20.003Z,100235.94
2019-04-07T12:24:51.355Z,100245.07
2019-04-07T12:27:42.999Z,100242.06
2019-04-07T12:30:14.317Z,100243.52
2019-04-07T12:32:43.933Z,100239.04
2019-04-07T12:35:33.027Z,100244.45
2019-04-07T12:38:16.575Z,100235.08
2019-04-07T12:40:52.924Z,100239.58
2019-04-07T12:43:24.968Z,100249.09
2019-04-07T12:45:59.430Z,100237.80
2019-04-07T12:48:31.967Z,100246.66
2019-04-07T12:51:04.507Z,100243.63
2019-04-07T12:53:43.420Z,100235.80
2019-04-07T12:56:33.895Z,100245.40
2019-04-07T12:59:02.008Z,100238.90
2019-04-07T13:01:33.876Z,100232.16
2019-04-07T13:04:06.040Z,100236.95
2019-04-07T13:06:54.512Z,100230.44
2019-04-07T13:09:33.062Z,100235.82
2019-04-07T13:12:05.650Z,100234.72
2019-04-07T13:14:53.670Z,100227.91
2019-04-07T13:17:28.073Z,100239.88
2019-04-07T13:20:02.306Z,100231.84
2019-04-07T13:22:46.000Z,100235.09
2019-04-07T13:25:33.734Z,100227.64
2019-04-07T13:28:05.303Z,100232.05
2019-04-07T13:30:43.332Z,100231.92
2019-04-07T13:33:45.813Z,100225.72
2019-04-07T14:40:12.759Z,100227.27
2019-04-07T14:42:44.573Z,100222.73
2019-04-07T14:45:32.101Z,100232.06
2019-04-07T14:48:12.923Z,100232.05
2019-04-07T14:50:44.899Z,100227.13
2019-04-07T14:53:32.983Z,100234.36
2019-04-07T14:56:15.365Z,100238.02
2019-04-07T14:58:53.861Z,100232.69
2019-04-07T15:01:25.727Z,100226.86
2019-04-07T15:03:55.701Z,100235.59
2019-04-07T15:06:29.207Z,100226.91
2019-04-07T15:09:17.618Z,100235.38
2019-04-07T15:11:49.044Z,100226.09
2019-04-07T15:14:19.215Z,100231.19
2019-04-07T15:16:49.210Z,100228.83
2019-04-07T15:19:19.865Z,100226.15
2019-04-07T15:21:53.021Z,100222.17
2019-04-07T15:24:22.648Z,100223.33
2019-04-07T15:26:53.007Z,100228.86
2019-04-07T15:29:23.213Z,100229.00
2019-04-07T15:31:53.209Z,100235.08
2019-04-07T15:34:23.079Z,100234.94
2019-04-07T15:36:52.904Z,100226.28
2019-04-07T15:39:22.699Z,100228.07
2019-04-07T15:41:52.609Z,100226.70
2019-04-07T15:44:22.873Z,100232.23
2019-04-07T15:46:53.376Z,100229.55
2019-04-07T15:49:26.023Z,100225.61
2019-04-07T15:51:55.150Z,100229.83
2019-04-07T15:54:25.397Z,100234.83
2019-04-07T15:56:57.893Z,100236.31
2019-04-07T15:59:29.426Z,100236.84
2019-04-07T16:01:58.248Z,100235.38
2019-04-07T16:04:29.483Z,100233.89
2019-04-07T16:07:00.217Z,100241.05
2019-04-07T16:09:38.681Z,100242.33
2019-04-07T16:12:01.731Z,100242.00
2019-04-07T16:14:32.071Z,100236.79
2019-04-07T16:17:04.144Z,100239.36
2019-04-07T16:19:38.183Z,100244.97
2019-04-07T16:22:06.036Z,100246.00
2019-04-07T16:24:35.835Z,100250.78
2019-04-07T16:27:07.041Z,100252.13
2019-04-07T16:29:37.386Z,100253.02
2019-04-07T16:32:08.141Z,100252.00
2019-04-07T16:34:41.031Z,100257.70
2019-04-07T16:37:09.532Z,100258.56
2019-04-07T16:39:39.367Z,100258.79
2019-04-07T16:42:09.344Z,100264.39
2019-04-07T16:44:42.824Z,100257.20
2019-04-07T16:47:19.581Z,100257.14
2019-04-07T16:49:47.394Z,100261.83
2019-04-07T16:52:13.872Z,100262.55
2019-04-07T16:54:44.686Z,100263.05
2019-04-07T16:57:15.400Z,100269.02
2019-04-07T16:59:45.589Z,100268.48
2019-04-07T17:02:16.989Z,100274.64
2019-04-07T17:04:46.995Z,100283.11
2019-04-07T17:07:17.999Z,100271.73
2019-04-07T17:09:48.859Z,100278.92
2019-04-07T17:12:18.587Z,100282.09
2019-04-07T17:14:49.056Z,100283.08
2019-04-07T17:17:21.537Z,100284.67
2019-04-07T17:19:51.239Z,100282.39
2019-04-07T17:22:21.169Z,100290.12
2019-04-07T17:24:51.895Z,100290.28
2019-04-07T17:27:21.697Z,100290.36
2019-04-07T17:29:54.091Z,100292.42
2019-04-07T17:32:23.219Z,100295.61
2019-04-07T17:34:53.062Z,100300.09
2019-04-07T17:37:25.953Z,100296.76
2019-04-07T17:39:58.517Z,100298.36
2019-04-07T17:42:28.362Z,100304.64
2019-04-07T17:45:03.443Z,100305.98
2019-04-07T17:47:51.777Z,100303.44
2019-04-07T17:50:23.513Z,100304.33
2019-04-07T17:52:58.519Z,100300.27
2019-04-07T17:55:30.014Z,100312.58
2019-04-07T17:58:07.884Z,100313.57
2019-04-07T18:00:49.219Z,100316.76
2019-04-07T18:03:39.080Z,100315.13
2019-04-07T18:06:24.975Z,100317.23
2019-04-07T18:09:12.397Z,100316.19
2019-04-07T18:11:52.872Z,100323.48
2019-04-07T18:14:22.364Z,100329.53
2019-04-07T18:16:58.072Z,100324.16
2019-04-07T18:19:36.210Z,100334.88
2019-04-07T18:22:13.698Z,100342.72
2019-04-07T18:24:51.045Z,100345.11
2019-04-07T18:27:25.351Z,100343.78
2019-04-07T18:30:05.533Z,100347.45
2019-04-07T18:32:43.059Z,100350.36
2019-04-07T18:35:32.642Z,100351.70
2019-04-07T18:38:20.583Z,100359.63
2019-04-07T18:41:10.740Z,100362.59
2019-04-07T18:43:49.103Z,100372.33
2019-04-07T18:46:28.866Z,100375.45
2019-04-07T18:49:04.822Z,100380.87
2019-04-07T18:51:44.349Z,100385.08
2019-04-07T18:54:17.161Z,100386.59
2019-04-07T18:57:05.478Z,100389.43
2019-04-07T18:59:38.993Z,100392.37
2019-04-07T19:02:14.876Z,100403.27
2019-04-07T19:04:53.483Z,100411.62
2019-04-07T19:07:45.865Z,100410.58
2019-04-07T19:10:29.050Z,100410.53
2019-04-07T19:13:18.550Z,100415.02
2019-04-07T19:15:53.287Z,100424.53
2019-04-07T19:18:25.970Z,100425.47
2019-04-07T19:21:01.050Z,100429.69
2019-04-07T19:23:30.553Z,100429.83
2019-04-07T19:26:04.580Z,100426.03
2019-04-07T19:28:50.723Z,100430.63
2019-04-07T19:31:20.206Z,100429.42
2019-04-07T19:33:57.884Z,100432.53
2019-04-07T19:36:29.366Z,100429.47
2019-04-07T19:39:03.513Z,100433.31
2019-04-07T19:41:47.067Z,100431.72
2019-04-07T19:44:35.748Z,100438.67
2019-04-07T19:47:00.050Z,100439.81
2019-04-07T19:49:30.893Z,100434.90
2019-04-07T19:52:09.465Z,100439.73
2019-04-07T19:54:51.563Z,100438.97
2019-04-07T19:57:23.865Z,100441.56
2019-04-07T20:00:14.253Z,100439.45
2019-04-07T20:03:04.246Z,100433.58
2019-04-07T20:05:41.694Z,100440.21
2019-04-07T20:08:24.910Z,100435.40
2019-04-07T20:10:57.586Z,100440.45
2019-04-07T20:13:38.378Z,100445.06
2019-04-07T20:16:08.147Z,100443.94
2019-04-07T20:18:58.585Z,100448.78
2019-04-07T20:21:38.268Z,100447.56
2019-04-07T20:24:15.237Z,100454.19
2019-04-07T20:26:46.797Z,100452.48
2019-04-07T20:29:19.232Z,100447.22
2019-04-07T20:32:03.360Z,100450.72
2019-04-07T20:34:40.409Z,100457.64
2019-04-07T20:37:09.374Z,100453.62
2019-04-07T20:39:45.138Z,100452.04
2019-04-07T20:42:25.747Z,100453.95
2019-04-07T20:45:03.831Z,100454.38
2019-04-07T20:47:31.768Z,100455.52
2019-04-07T20:50:19.600Z,100456.41
2019-04-07T20:52:49.073Z,100456.05
2019-04-07T20:55:37.316Z,100454.92
2019-04-07T20:58:23.800Z,100452.91
2019-04-07T21:01:04.186Z,100452.52
2019-04-07T21:03:45.046Z,100450.92
2019-04-07T21:06:15.310Z,100453.61
2019-04-07T21:09:01.420Z,100452.81
2019-04-07T21:11:49.291Z,100453.36
2019-04-07T21:14:20.858Z,100450.58
2019-04-07T21:16:50.986Z,100454.12
2019-04-07T21:19:22.863Z,100454.73
2019-04-07T21:21:58.603Z,100458.52
2019-04-07T21:24:49.783Z,100458.78
2019-04-07T21:27:20.865Z,100454.95
2019-04-07T21:29:58.016Z,100453.59
2019-04-07T21:32:48.618Z,100460.27
2019-04-07T21:35:35.355Z,100459.84
2019-04-07T21:38:18.293Z,100462.95
2019-04-07T21:40:51.363Z,100462.59
2019-04-07T21:43:37.898Z,100465.92
2019-04-07T21:46:22.435Z,100468.72
2019-04-07T21:48:51.614Z,100468.48
2019-04-07T21:51:29.157Z,100467.52
2019-04-07T21:54:02.739Z,100475.64
2019-04-07T21:56:37.163Z,100478.91
2019-04-07T21:59:09.676Z,100476.25
2019-04-07T22:01:41.230Z,100478.86
2019-04-07T22:04:29.838Z,100476.52
2019-04-07T22:07:01.664Z,100484.98
2019-04-07T22:09:33.088Z,100476.94
2019-04-07T22:12:03.117Z,100478.00
2019-04-07T22:14:34.957Z,100488.14
2019-04-07T22:17:05.298Z,100483.05
2019-04-07T22:19:35.887Z,100493.89
2019-04-07T22:22:06.660Z,100485.28
2019-04-07T22:24:38.320Z,100493.24
2019-04-07T22:27:09.118Z,100494.51
2019-04-07T22:29:39.033Z,100494.08
2019-04-07T22:32:08.974Z,100494.44
2019-04-07T22:34:38.917Z,100490.19
2019-04-07T22:37:08.600Z,100495.20
2019-04-07T22:39:38.418Z,100488.05
2019-04-07T22:42:08.570Z,100489.17
2019-04-07T22:44:38.442Z,100485.52
2019-04-07T22:47:09.173Z,100489.97
2019-04-07T22:49:39.641Z,100489.72
2019-04-07T22:52:09.660Z,100491.17
2019-04-07T22:54:40.665Z,100489.33
2019-04-07T22:57:13.108Z,100494.87
2019-04-07T22:59:41.873Z,100496.76
2019-04-07T23:02:11.701Z,100490.33
2019-04-07T23:04:41.448Z,100493.85
2019-04-07T23:07:11.735Z,100494.37
2019-04-07T23:09:41.627Z,100503.30
2019-04-07T23:12:11.331Z,100494.63
2019-04-07T23:14:42.114Z,100500.95
2019-04-07T23:17:12.046Z,100500.83
2019-04-07T23:19:41.997Z,100499.56
2019-04-07T23:22:11.877Z,100505.30
2019-04-07T23:24:41.712Z,100508.30
2019-04-07T23:27:12.398Z,100501.34
2019-04-07T23:29:42.310Z,100503.42
2019-04-07T23:32:12.138Z,100505.37
2019-04-07T23:34:41.811Z,100503.98
2019-04-07T23:37:12.351Z,100503.91
2019-04-07T23:39:42.077Z,100506.28
2019-04-07T23:42:12.593Z,100500.60
2019-04-07T23:44:42.646Z,100507.52
2019-04-07T23:47:13.511Z,100502.31
2019-04-07T23:49:43.252Z,100506.43
2019-04-07T23:52:12.965Z,100510.29
2019-04-07T23:54:42.637Z,100506.97
2019-04-07T23:57:12.363Z,100509.87
2019-04-07T23:59:42.240Z,100512.09
